createdAt,value
2019-01-12T00:00:18.921Z,98.84
2019-01-12T00:00:59.510Z,99.32
2019-01-12T00:01:39.845Z,99.32
2019-01-12T00:02:21.875Z,98.27
2019-01-12T00:03:04.903Z,98.84
2019-01-12T00:03:46.249Z,99.22
2019-01-12T00:04:30.681Z,98.74
2019-01-12T00:05:14.075Z,98.84
2019-01-12T00:05:56.253Z,98.65
2019-01-12T00:06:44.558Z,97.7
2019-01-12T00:07:26.601Z,98.18
2019-01-12T00:08:17.597Z,98.46
2019-01-12T00:08:58.830Z,98.74
2019-01-12T00:09:39.776Z,98.65
2019-01-12T00:10:20.189Z,98.74
2019-01-12T00:11:02.230Z,97.79
2019-01-12T00:11:43.314Z,98.27
2019-01-12T00:12:23.539Z,98.36
2019-01-12T00:13:04.897Z,97.99
2019-01-12T00:13:46.187Z,98.27
2019-01-12T00:14:28.689Z,98.08
2019-01-12T00:15:10.382Z,98.36
2019-01-12T00:15:50.391Z,97.6
2019-01-12T00:16:30.870Z,98.65
2019-01-12T00:17:14.898Z,98.46
2019-01-12T00:17:56.927Z,97.79
2019-01-12T00:18:38.324Z,98.22
2019-01-12T00:19:20.333Z,98.13
2019-01-12T00:20:02.849Z,97.75
2019-01-12T00:20:43.299Z,97.56
2019-01-12T00:21:24.634Z,97.46
2019-01-12T00:22:05.174Z,96.89
2019-01-12T00:22:45.563Z,96.6
2019-01-12T00:23:27.727Z,96.6
2019-01-12T00:24:14.123Z,96.89
2019-01-12T00:24:55.210Z,96.7
2019-01-12T00:25:38.501Z,96.51
2019-01-12T00:26:18.896Z,96.8
2019-01-12T00:26:59.268Z,96.7
2019-01-12T00:27:41.250Z,97.08
2019-01-12T00:28:30.615Z,97.46
2019-01-12T00:29:18.065Z,96.51
2019-01-12T00:30:00.330Z,97.17
2019-01-12T00:30:42.806Z,97.65
2019-01-12T00:31:23.176Z,96.51
2019-01-12T00:32:05.280Z,96.6
2019-01-12T00:33:04.939Z,96.32
2019-01-12T00:33:46.223Z,96.8
2019-01-12T00:34:26.762Z,96.41
2019-01-12T00:35:09.082Z,96.98
2019-01-12T00:42:28.836Z,96.6
2019-01-12T00:43:08.432Z,96.6
2019-01-12T00:43:51.331Z,96.6
2019-01-12T00:44:34.732Z,96.22
2019-01-12T00:45:15.157Z,96.94
2019-01-12T00:45:55.653Z,96.6
2019-01-12T00:46:36.682Z,96.36
2019-01-12T00:47:19.253Z,97.17
2019-01-12T00:48:00.123Z,96.55
2019-01-12T00:48:40.521Z,96.89
2019-01-12T00:49:22.297Z,96.55
2019-01-12T00:50:03.151Z,96.84
2019-01-12T00:50:44.060Z,96.32
2019-01-12T00:51:24.421Z,96.46
2019-01-12T00:52:06.089Z,96.84
2019-01-12T00:52:46.491Z,96.17
2019-01-12T00:53:37.879Z,96.94
2019-01-12T00:54:38.551Z,96.75
2019-01-12T00:55:21.357Z,96.75
2019-01-12T00:56:01.811Z,96.94
2019-01-12T00:56:42.203Z,97.79
2019-01-12T00:57:26.195Z,96.75
2019-01-12T00:58:07.660Z,96.46
2019-01-12T00:58:48.305Z,96.46
2019-01-12T00:59:32.588Z,96.84
2019-01-12T01:00:14.988Z,97.13
2019-01-12T01:00:55.870Z,96.84
2019-01-12T01:01:38.694Z,97.7
2019-01-12T01:02:22.981Z,96.36
2019-01-12T01:03:06.494Z,97.79
2019-01-12T01:03:47.451Z,97.6
2019-01-12T01:04:29.683Z,97.6
2019-01-12T01:05:12.093Z,98.27
2019-01-12T01:05:52.876Z,98.36
2019-01-12T01:06:36.596Z,98.08
2019-01-12T01:07:15.637Z,97.41
2019-01-12T01:07:56.832Z,96.46
2019-01-12T01:08:37.234Z,96.94
2019-01-12T01:09:19.445Z,96.46
2019-01-12T01:10:06.109Z,97.22
2019-01-12T01:46:27.631Z,99.13
2019-01-12T01:47:13.507Z,99.03
2019-01-12T01:47:56.281Z,98.84
2019-01-12T01:48:38.693Z,99.13
2019-01-12T01:49:19.962Z,98.46
2019-01-12T01:50:00.373Z,98.36
2019-01-12T01:50:40.832Z,98.08
2019-01-12T01:51:38.641Z,98.27
2019-01-12T01:52:19.449Z,97.51
2019-01-12T01:52:59.698Z,97.41
2019-01-12T01:53:41.809Z,98.36
2019-01-12T01:54:22.325Z,98.18
2019-01-12T01:55:05.341Z,98.08
2019-01-12T01:55:46.852Z,98.36
2019-01-12T01:56:28.142Z,98.46
2019-01-12T01:57:10.380Z,98.08
2019-01-12T01:57:52.694Z,98.46
2019-01-12T01:58:34.763Z,98.36
2019-01-12T01:59:15.157Z,98.55
2019-01-12T01:59:57.690Z,98.46
2019-01-12T02:00:44.979Z,98.46
2019-01-12T02:01:34.646Z,98.46
2019-01-12T02:02:19.653Z,98.36
2019-01-12T02:03:00.185Z,98.27
2019-01-12T02:03:42.519Z,97.99
2019-01-12T02:04:23.233Z,97.89
2019-01-12T02:05:06.687Z,98.08
2019-01-12T02:06:08.622Z,97.99
2019-01-12T03:59:26.316Z,95.79
2019-01-12T05:07:38.988Z,99.27
2019-01-12T05:14:35.159Z,99.08
2019-01-12T05:22:08.864Z,97.36
2019-01-12T05:23:01.563Z,97.93
2019-01-12T05:24:04.193Z,96.75
2019-01-12T05:25:03.960Z,96.12
2019-01-12T05:26:00.824Z,96.22
2019-01-12T05:27:18.029Z,95.46
2019-01-12T05:28:13.486Z,95.17
2019-01-12T05:29:22.731Z,95.22
2019-01-12T05:30:18.539Z,94.84
2019-01-12T05:37:26.656Z,93.13
2019-01-12T05:42:46.848Z,91.89
2019-01-12T05:46:54.207Z,90.65
2019-01-12T05:47:48.227Z,90.36
2019-01-12T05:48:40.998Z,91.03
2019-01-12T05:49:40.290Z,91.22
2019-01-12T05:55:12.137Z,91.51
2019-01-12T05:56:05.457Z,90.56
2019-01-12T05:56:58.796Z,90.65
2019-01-12T05:57:54.715Z,90.46
2019-01-12T05:58:53.065Z,89.22
2019-01-12T06:24:01.795Z,89.89
2019-01-12T06:44:32.509Z,89.32
2019-01-12T06:49:05.685Z,88.84
2019-01-12T06:54:33.975Z,88.46
2019-01-12T06:55:29.339Z,88.84
2019-01-12T06:56:25.550Z,88.18
2019-01-12T06:59:18.901Z,87.23
2019-01-12T07:00:13.999Z,86.36
2019-01-12T07:01:10.371Z,87.51
2019-01-12T07:15:40.006Z,89.75
2019-01-12T07:16:44.373Z,89.37
2019-01-12T07:17:38.836Z,88.6
2019-01-12T07:20:15.096Z,89.18
2019-01-12T07:29:04.247Z,89.56
2019-01-12T07:30:00.090Z,90.61
2019-01-12T07:30:56.168Z,89.94
2019-01-12T07:32:16.547Z,89.94
2019-01-12T07:35:23.715Z,89.18
2019-01-12T07:36:04.586Z,88.51
2019-01-12T07:36:44.902Z,89.18
2019-01-12T07:37:25.446Z,89.18
2019-01-12T07:38:06.649Z,89.65
2019-01-12T07:38:46.975Z,90.03
2019-01-12T07:39:28.820Z,89.84
2019-01-12T07:40:09.837Z,89.65
2019-01-12T07:40:50.487Z,89.75
2019-01-12T07:41:30.928Z,88.23
2019-01-12T07:42:11.239Z,88.84
2019-01-12T07:42:51.703Z,88.7
2019-01-12T07:43:33.936Z,88.42
2019-01-12T07:44:15.361Z,88.79
2019-01-12T07:44:55.893Z,89.22
2019-01-12T07:45:36.315Z,88.37
2019-01-12T07:46:16.684Z,88.6
2019-01-12T07:46:57.291Z,88.08
2019-01-12T07:47:37.693Z,88.08
2019-01-12T07:48:18.104Z,88.93
2019-01-12T07:48:58.630Z,88.7
2019-01-12T07:54:17.534Z,89.37
2019-01-12T07:55:11.355Z,89.37
2019-01-12T07:56:10.348Z,89.18
2019-01-12T07:57:03.403Z,89.65
2019-01-12T07:58:13.055Z,89.47
2019-01-12T07:59:08.958Z,89.94
2019-01-12T08:00:02.656Z,89.18
2019-01-12T08:01:50.923Z,90.8
2019-01-12T08:03:46.160Z,90.03
2019-01-12T08:06:47.740Z,89.18
2019-01-12T08:07:57.682Z,88.6
2019-01-12T08:11:45.006Z,87.75
2019-01-12T08:12:41.628Z,88.32
2019-01-12T08:13:37.056Z,89.56
2019-01-12T08:14:41.843Z,89.84
2019-01-12T08:15:42.060Z,89.47
2019-01-12T08:16:36.360Z,88.51
2019-01-12T08:17:56.768Z,88.7
2019-01-12T08:18:51.378Z,88.42
2019-01-12T08:19:46.886Z,88.6
2019-01-12T08:21:03.859Z,87.18
2019-01-12T08:23:40.557Z,86.32
2019-01-12T08:25:36.016Z,87.85
2019-01-12T08:26:32.589Z,88.79
2019-01-12T08:39:07.903Z,87.56
2019-01-12T08:40:05.756Z,89.27
2019-01-12T08:42:00.947Z,86.8
2019-01-12T08:42:42.336Z,87.08
2019-01-12T08:43:24.406Z,87.46
2019-01-12T08:44:07.571Z,88.13
2019-01-12T08:44:47.816Z,87.65
2019-01-12T08:45:41.839Z,87.08
2019-01-12T08:46:21.702Z,87.85
2019-01-12T08:47:03.900Z,86.32
2019-01-12T08:47:47.837Z,86.42
2019-01-12T08:48:29.331Z,86.51
2019-01-12T08:49:11.043Z,86.7
2019-01-12T08:49:51.901Z,86.61
2019-01-12T08:50:34.877Z,86.51
2019-01-12T08:51:15.560Z,86.61
2019-01-12T08:51:57.823Z,86.51
2019-01-12T08:52:39.026Z,86.42
2019-01-12T08:53:26.824Z,86.22
2019-01-12T08:54:13.768Z,85.94
2019-01-12T08:54:55.940Z,85.94
2019-01-12T08:55:36.835Z,86.8
2019-01-12T08:56:17.215Z,86.42
2019-01-12T08:56:58.481Z,86.61
2019-01-12T08:57:39.338Z,87.27
2019-01-12T08:58:21.494Z,85.56
2019-01-12T08:59:03.590Z,85.56
2019-01-12T08:59:44.073Z,85.56
2019-01-12T09:00:24.887Z,86.13
2019-01-12T09:02:26.127Z,85.28
2019-01-12T09:24:59.819Z,83.61
2019-01-12T09:26:03.389Z,82.46
2019-01-12T09:31:41.803Z,81.51
2019-01-12T09:32:47.083Z,81.7
2019-01-12T09:33:39.233Z,81.79
2019-01-12T09:34:32.282Z,81.6
2019-01-12T09:35:25.254Z,82.75
2019-01-12T09:36:18.973Z,83.7
2019-01-12T09:37:11.207Z,82.18
2019-01-12T09:52:48.637Z,80.36
2019-01-12T09:54:41.536Z,81.03
2019-01-12T09:55:23.103Z,81.13
2019-01-12T09:56:08.017Z,81.23
2019-01-12T09:56:51.808Z,81.32
2019-01-12T09:57:33.522Z,81.13
2019-01-12T09:58:13.726Z,81.6
2019-01-12T09:58:54.455Z,81.7
2019-01-12T09:59:35.015Z,81.98
2019-01-12T10:00:17.359Z,81.6
2019-01-12T10:00:59.745Z,81.41
2019-01-12T10:01:40.084Z,80.27
2019-01-12T10:02:20.558Z,80.36
2019-01-12T10:03:02.724Z,81.89
2019-01-12T10:03:45.006Z,80.55
2019-01-12T10:04:25.394Z,81.51
2019-01-12T10:05:06.937Z,81.23
2019-01-12T10:05:47.347Z,80.75
2019-01-12T10:06:29.843Z,80.94
2019-01-12T10:07:11.786Z,81.41
2019-01-12T10:07:53.989Z,81.41
2019-01-12T10:08:34.431Z,80.55
2019-01-12T10:09:17.444Z,80.84
2019-01-12T10:10:02.991Z,80.8
2019-01-12T10:10:52.375Z,81.98
2019-01-12T10:11:33.546Z,81.56
2019-01-12T10:12:18.912Z,81.85
2019-01-12T10:12:59.266Z,81.47
2019-01-12T10:13:39.918Z,81.85
2019-01-12T10:14:25.068Z,82.23
2019-01-12T10:15:10.300Z,82.42
2019-01-12T10:15:50.509Z,83.28
2019-01-12T10:16:32.412Z,83.37
2019-01-12T10:17:15.966Z,82.7
2019-01-12T10:21:04.604Z,81.85
2019-01-12T10:23:14.726Z,81.76
2019-01-12T10:24:19.729Z,81.85
2019-01-12T10:25:26.155Z,82.42
2019-01-12T11:09:53.619Z,85.66
2019-01-12T11:10:33.742Z,86.04
2019-01-12T11:11:14.210Z,85.94
2019-01-12T11:11:56.240Z,85.37
2019-01-12T11:12:36.636Z,85.94
2019-01-12T11:13:17.046Z,85.56
2019-01-12T11:13:57.465Z,85.28
2019-01-12T11:14:38.832Z,85.85
2019-01-12T11:15:19.400Z,86.61
2019-01-12T11:15:59.657Z,86.8
2019-01-12T11:16:40.215Z,84.23
2019-01-12T11:17:21.648Z,85.13
2019-01-12T11:18:06.187Z,84.17
2019-01-12T11:18:47.564Z,83.32
2019-01-12T11:19:28.019Z,83.51
2019-01-12T11:20:08.644Z,83.41
2019-01-12T11:20:49.947Z,81.98
2019-01-12T11:21:30.425Z,83.22
2019-01-12T11:22:11.150Z,82.56
2019-01-12T11:22:51.513Z,83.03
2019-01-12T11:23:31.928Z,82.84
2019-01-12T11:24:12.938Z,83.22
2019-01-12T11:24:53.284Z,82.75
2019-01-12T11:25:33.846Z,83.13
2019-01-12T11:26:14.302Z,83.61
2019-01-12T11:26:56.475Z,83.41
2019-01-12T11:27:37.105Z,82.84
2019-01-12T11:28:17.469Z,82.18
2019-01-12T11:28:57.947Z,81.7
2019-01-12T11:29:39.319Z,82.46
2019-01-12T11:30:19.723Z,82.46
2019-01-12T11:31:00.173Z,82.46
2019-01-12T11:31:41.492Z,82.27
2019-01-12T11:32:21.881Z,82.46
2019-01-12T11:33:06.316Z,82.46
2019-01-12T11:33:46.849Z,82.84
2019-01-12T11:34:28.966Z,82.46
2019-01-12T11:35:10.931Z,82.46
2019-01-12T11:35:51.291Z,81.23
2019-01-12T11:36:32.622Z,81.79
2019-01-12T11:37:13.030Z,81.6
2019-01-12T11:37:55.253Z,81.51
2019-01-12T11:38:39.263Z,80.36
2019-01-12T11:39:21.752Z,80.84
2019-01-12T11:40:02.194Z,81.89
2019-01-12T11:40:44.415Z,81.41
2019-01-12T11:41:26.425Z,81.6
2019-01-12T11:42:09.110Z,81.51
2019-01-12T11:42:50.508Z,81.41
2019-01-12T11:43:30.990Z,81.41
2019-01-12T11:44:13.689Z,81.36
2019-01-12T11:44:53.977Z,81.89
2019-01-12T11:45:36.978Z,81.13
2019-01-12T11:46:19.196Z,81.03
2019-01-12T11:46:59.671Z,81.32
2019-01-12T11:47:44.293Z,81.89
2019-01-12T11:48:24.760Z,81.23
2019-01-12T11:49:07.253Z,81.89
2019-01-12T11:49:47.536Z,81.6
2019-01-12T11:50:29.825Z,82.27
2019-01-12T11:51:09.928Z,82.46
2019-01-12T11:51:54.298Z,82.18
2019-01-12T11:52:34.675Z,81.84
2019-01-12T11:53:17.026Z,81.51
2019-01-12T11:53:57.474Z,81.89
2019-01-12T11:54:38.870Z,82.27
2019-01-12T11:55:21.464Z,81.51
2019-01-12T11:56:03.947Z,81.98
2019-01-12T11:56:45.232Z,81.89
2019-01-12T11:57:27.479Z,82.46
2019-01-12T11:58:08.853Z,82.46
2019-01-12T11:58:49.263Z,82.84
2019-01-12T12:04:14.553Z,87.13
2019-01-12T12:04:57.120Z,87.32
2019-01-12T12:05:37.809Z,86.65
2019-01-12T12:06:19.523Z,87.32
2019-01-12T12:07:01.629Z,87.79
2019-01-12T12:07:42.065Z,88.08
2019-01-12T12:08:24.478Z,88.37
2019-01-12T12:09:04.816Z,87.98
2019-01-12T12:09:45.243Z,88.84
2019-01-12T12:10:25.646Z,87.98
2019-01-12T12:11:06.026Z,87.98
2019-01-12T12:11:47.714Z,87.7
2019-01-12T12:12:29.519Z,87.89
2019-01-12T12:13:10.388Z,87.51
2019-01-12T12:13:51.044Z,87.51
2019-01-12T12:14:31.271Z,87.79
2019-01-12T12:15:12.542Z,88.27
2019-01-12T12:15:53.551Z,88.65
2019-01-12T12:16:34.953Z,88.84
2019-01-12T12:17:17.231Z,87.98
2019-01-12T12:17:57.646Z,87.32
2019-01-12T12:18:40.725Z,87.98
2019-01-12T12:19:21.136Z,88.18
2019-01-12T12:20:01.541Z,88.27
2019-01-12T12:20:43.980Z,88.27
2019-01-12T12:21:25.803Z,89.41
2019-01-12T12:22:06.994Z,89.51
2019-01-12T12:22:50.968Z,88.93
2019-01-12T12:23:31.931Z,89.22
2019-01-12T12:24:14.168Z,89.89
2019-01-12T12:24:55.039Z,88.93
2019-01-12T12:25:38.095Z,89.03
2019-01-12T12:26:18.576Z,89.51
2019-01-12T12:26:58.997Z,89.79
2019-01-12T12:27:39.377Z,90.27
2019-01-12T12:28:19.913Z,90.56
2019-01-12T12:29:00.217Z,90.75
2019-01-12T12:29:42.657Z,90.17
2019-01-12T12:30:23.014Z,90.36
2019-01-12T12:31:03.689Z,92.18
2019-01-12T12:31:44.077Z,91.41
2019-01-12T12:33:57.574Z,92.18
2019-01-12T12:41:04.069Z,92.13
2019-01-12T12:41:44.574Z,93.37
2019-01-12T12:42:26.010Z,93.27
2019-01-12T12:43:07.455Z,93.65
2019-01-12T12:43:47.794Z,93.22
2019-01-12T12:44:28.182Z,93.79
2019-01-12T12:45:10.395Z,93.08
2019-01-12T12:45:50.815Z,93.03
2019-01-12T12:46:33.177Z,93.89
2019-01-12T12:47:15.574Z,93.22
2019-01-12T12:47:57.923Z,93.79
2019-01-12T12:48:38.800Z,93.41
2019-01-12T12:49:21.772Z,92.65
2019-01-12T12:50:02.098Z,92.36
2019-01-12T12:50:42.518Z,92.08
2019-01-12T12:51:22.853Z,92.18
2019-01-12T12:52:03.282Z,92.65
2019-01-12T12:52:47.167Z,93.6
2019-01-12T12:53:28.198Z,93.6
2019-01-12T12:54:09.542Z,93.13
2019-01-12T12:54:49.958Z,93.22
2019-01-12T12:55:30.433Z,94.37
2019-01-12T12:56:10.928Z,93.22
2019-01-12T12:56:53.084Z,93.22
2019-01-12T12:57:35.198Z,93.84
2019-01-12T12:58:15.536Z,94.22
2019-01-12T12:58:57.906Z,94.56
2019-01-12T12:59:39.080Z,94.6
2019-01-12T13:00:19.442Z,94.13
2019-01-12T13:01:00.002Z,95.27
2019-01-12T13:01:41.475Z,96.12
2019-01-12T13:02:21.820Z,95.94
2019-01-12T13:03:03.945Z,96.98
2019-01-12T13:03:44.254Z,97.17
2019-01-12T13:04:24.759Z,96.51
2019-01-12T13:05:05.292Z,97.55
2019-01-12T13:05:45.670Z,98.6
2019-01-12T13:06:27.738Z,98.6
2019-01-12T13:07:08.146Z,97.46
2019-01-12T13:07:48.535Z,97.46
2019-01-12T13:08:30.839Z,97.74
2019-01-12T13:09:11.201Z,96.89
2019-01-12T13:09:53.015Z,96.7
2019-01-12T13:10:33.568Z,96.51
2019-01-12T13:11:13.980Z,95.36
2019-01-12T13:11:54.310Z,95.27
2019-01-12T13:12:36.232Z,96.03
2019-01-12T13:13:17.594Z,95.84
2019-01-12T13:13:58.039Z,95.75
2019-01-12T13:14:38.485Z,96.7
2019-01-12T13:15:18.929Z,96.98
2019-01-12T13:16:03.872Z,96.12
2019-01-12T13:16:44.208Z,95.08
2019-01-12T13:17:24.561Z,94.7
2019-01-12T13:18:04.951Z,96.41
2019-01-12T13:18:45.448Z,96.6
2019-01-12T13:19:25.872Z,96.51
2019-01-12T13:20:06.618Z,96.7
2019-01-12T13:20:46.955Z,96.55
2019-01-12T13:21:27.371Z,96.17
2019-01-12T13:22:08.684Z,96.84
2019-01-12T13:22:49.438Z,96.46
2019-01-12T13:23:29.847Z,96.31
2019-01-12T13:24:10.242Z,96.6
2019-01-12T13:24:50.634Z,97.27
2019-01-12T13:25:32.657Z,96.51
2019-01-12T13:26:13.270Z,97.41
2019-01-12T13:26:54.208Z,97.03
2019-01-12T13:27:39.757Z,95.79
2019-01-12T13:28:16.814Z,96.46
2019-01-12T13:28:57.220Z,95.98
2019-01-12T13:29:37.737Z,96.08
2019-01-12T13:30:18.230Z,96.55
2019-01-12T13:30:58.596Z,97.31
2019-01-12T13:31:39.923Z,96.79
2019-01-12T13:32:21.814Z,96.98
2019-01-12T13:33:02.215Z,96.65
2019-01-12T13:33:42.683Z,96.36
2019-01-12T13:34:23.060Z,96.55
2019-01-12T13:35:03.492Z,96.46
2019-01-12T13:35:46.226Z,96.84
2019-01-12T13:36:26.707Z,96.75
2019-01-12T13:37:07.460Z,96.75
2019-01-12T13:37:47.775Z,97.41
2019-01-12T13:38:28.198Z,96.46
2019-01-12T13:39:08.682Z,96.75
2019-01-12T13:39:49.036Z,97.51
2019-01-12T13:40:29.639Z,97.51
2019-01-12T13:41:11.124Z,97.6
2019-01-12T13:41:51.451Z,96.55
2019-01-12T13:42:32.004Z,96.46
2019-01-12T13:43:12.425Z,97.31
2019-01-12T13:43:54.680Z,96.84
2019-01-12T13:44:38.774Z,96.55
2019-01-12T13:45:19.654Z,96.55
2019-01-12T13:46:03.735Z,96.17
2019-01-12T13:46:46.327Z,97.03
2019-01-12T13:47:27.084Z,96.84
2019-01-12T13:48:07.462Z,96.84
2019-01-12T13:48:47.939Z,95.79
2019-01-12T13:49:28.328Z,96.17
2019-01-12T13:50:10.080Z,96.75
2019-01-12T13:50:52.771Z,96.46
2019-01-12T13:51:33.297Z,96.27
2019-01-12T13:52:13.612Z,96.46
2019-01-12T13:52:54.187Z,96.36
2019-01-12T13:53:34.571Z,95.89
2019-01-12T13:54:16.865Z,96.36
2019-01-12T13:54:58.470Z,96.17
2019-01-12T13:55:40.826Z,96.08
2019-01-12T13:56:21.278Z,96.46
2019-01-12T13:57:02.995Z,97.22
2019-01-12T13:57:50.265Z,96.84
2019-01-12T13:58:37.112Z,96.55
2019-01-12T13:59:17.547Z,96.36
2019-01-12T13:59:57.951Z,96.75
2019-01-12T14:00:40.897Z,97.99
2019-01-12T14:01:22.224Z,98.18
2019-01-12T14:02:02.828Z,98.36
2019-01-12T14:02:43.398Z,97.6
2019-01-12T14:03:24.176Z,96.46
2019-01-12T14:04:06.695Z,96.55
2019-01-12T14:04:56.383Z,96.36
2019-01-12T14:05:36.810Z,96.55
2019-01-12T14:06:19.766Z,97.79
2019-01-12T14:07:00.871Z,96.84
2019-01-12T14:07:42.900Z,96.46
2019-01-12T14:08:23.291Z,96.22
2019-01-12T14:09:05.369Z,95.94
2019-01-12T14:09:45.748Z,95.08
2019-01-12T14:10:27.651Z,95.17
2019-01-12T14:11:09.661Z,95.27
2019-01-12T14:11:51.804Z,95.65
2019-01-12T14:12:32.185Z,95.75
2019-01-12T14:13:14.423Z,96.22
2019-01-12T14:13:54.855Z,96.6
2019-01-12T14:14:35.424Z,96.98
2019-01-12T14:15:19.430Z,96.75
2019-01-12T14:16:00.732Z,97.03
2019-01-12T14:16:41.266Z,97.03
2019-01-12T14:17:21.614Z,97.79
2019-01-12T14:18:02.050Z,97.6
2019-01-12T14:18:42.581Z,98.18
2019-01-12T14:19:25.730Z,98.46
2019-01-12T14:20:06.255Z,98.36
2019-01-12T14:20:47.843Z,98.94
2019-01-12T14:21:29.839Z,99.69
2019-01-12T14:22:10.386Z,98.84
2019-01-12T14:22:52.761Z,99.03
2019-01-12T14:23:33.916Z,99.03
2019-01-12T14:24:13.986Z,98.84
2019-01-12T14:24:57.809Z,99.03
2019-01-12T14:25:40.089Z,99.13
2019-01-12T14:26:22.592Z,99.03
2019-01-12T14:27:05.897Z,98.89
2019-01-12T14:27:46.546Z,98.7
2019-01-12T14:28:28.660Z,99.03
2019-01-12T14:29:12.687Z,98.74
2019-01-12T14:29:53.095Z,99.08
2019-01-12T14:30:33.873Z,98.89
2019-01-12T14:31:15.042Z,98.89
2019-01-12T14:31:55.411Z,99.03
2019-01-12T14:32:35.863Z,99.32
2019-01-12T14:33:16.857Z,98.79
2019-01-12T14:33:59.244Z,98.89
2019-01-12T14:34:39.815Z,98.89
2019-01-12T14:35:20.527Z,98.79
2019-01-12T14:36:01.390Z,98.84
2019-01-12T14:36:41.718Z,98.99
2019-01-12T14:37:22.121Z,99.13
2019-01-12T14:38:02.491Z,99.13
2019-01-12T14:38:43.281Z,99.22
2019-01-12T14:39:25.570Z,99.99
2019-01-12T14:40:07.959Z,99.99
2019-01-12T14:40:49.337Z,99.99
2019-01-12T14:41:29.671Z,99.99
2019-01-12T14:42:10.398Z,99.99
2019-01-12T14:42:50.831Z,99.69
2019-01-12T14:43:32.243Z,99.84
2019-01-12T14:44:12.580Z,99.08
2019-01-12T14:44:56.887Z,99.84
2019-01-12T14:45:39.026Z,99.75
2019-01-12T14:46:19.642Z,99.89
2019-01-12T14:46:59.950Z,99.69
2019-01-12T14:47:40.346Z,99.89
2019-01-12T14:48:20.853Z,99.99
2019-01-12T14:49:01.257Z,99.55
2019-01-12T14:49:43.554Z,99.99
2019-01-12T14:50:23.964Z,98.89
2019-01-12T14:51:07.303Z,99.18
2019-01-12T14:51:47.004Z,98.89
2019-01-12T14:52:27.322Z,99.18
2019-01-12T14:53:07.796Z,98.99
2019-01-12T14:53:50.026Z,99.18
2019-01-12T14:54:32.860Z,99.55
2019-01-12T14:55:13.195Z,99.55
2019-01-12T14:55:55.551Z,99.18
2019-01-12T14:56:37.514Z,98.99
2019-01-12T14:57:24.686Z,99.75
2019-01-12T14:58:07.054Z,98.89
2019-01-12T14:58:47.472Z,99.18
2019-01-12T14:59:28.056Z,99.27
2019-01-12T15:00:10.285Z,98.6
2019-01-12T15:00:51.063Z,98.51
2019-01-12T15:01:31.172Z,98.32
2019-01-12T15:02:11.667Z,98.51
2019-01-12T15:02:52.052Z,98.79
2019-01-12T15:03:33.741Z,99.18
2019-01-12T15:04:14.222Z,99.18
2019-01-12T15:04:55.152Z,98.99
2019-01-12T15:05:37.431Z,98.79
2019-01-12T15:06:18.902Z,98.7
2019-01-12T15:06:59.971Z,99.75
2019-01-12T15:07:40.402Z,98.99
2019-01-12T15:08:20.804Z,98.89
2019-01-12T15:09:01.241Z,99.99
2019-01-12T15:09:41.857Z,99.75
2019-01-12T15:10:22.253Z,99.99
2019-01-12T15:11:06.639Z,99.65
2019-01-12T15:11:48.229Z,99.75
2019-01-12T15:12:29.581Z,99.99
2019-01-12T15:13:09.942Z,99.99
2019-01-12T15:13:52.440Z,99.94
2019-01-12T15:14:49.755Z,99.84
2019-01-12T15:15:36.829Z,99.99
2019-01-12T15:16:18.588Z,99.99
2019-01-12T15:17:02.985Z,99.99
2019-01-12T15:17:46.071Z,99.99
2019-01-12T15:18:28.205Z,99.99
2019-01-12T15:19:08.694Z,99.94
2019-01-12T15:19:51.669Z,99.99
2019-01-12T15:20:32.028Z,99.94
2019-01-12T15:21:13.218Z,99.94
2019-01-12T15:21:55.529Z,98.89
2019-01-12T15:22:36.158Z,99.18
2019-01-12T15:23:17.501Z,98.89
2019-01-12T15:23:59.053Z,99.18
2019-01-12T15:24:41.334Z,99.18
2019-01-12T15:25:21.840Z,98.7
2019-01-12T15:26:03.684Z,99.75
2019-01-12T15:26:44.057Z,99.99
2019-01-12T15:27:24.556Z,99.99
2019-01-12T15:28:08.930Z,99.99
2019-01-12T15:28:46.301Z,99.94
2019-01-12T15:29:26.739Z,99.99
2019-01-12T15:30:08.849Z,99.94
2019-01-12T15:30:49.170Z,99.99
2019-01-12T15:31:29.552Z,99.99
2019-01-12T15:32:09.936Z,99.99
2019-01-12T15:32:50.365Z,99.99
2019-01-12T15:33:31.739Z,99.99
2019-01-12T15:34:12.261Z,99.99
2019-01-12T15:37:46.825Z,99.99
2019-01-12T15:39:41.239Z,99.99
2019-01-12T15:40:21.513Z,99.99
2019-01-12T15:41:02.500Z,99.99
2019-01-12T15:41:42.911Z,99.99
2019-01-12T15:42:23.312Z,99.99
2019-01-12T15:43:04.335Z,99.99
2019-01-12T15:43:44.731Z,99.99
2019-01-12T15:44:25.183Z,99.99
2019-01-12T15:45:05.747Z,99.99
2019-01-12T15:45:46.102Z,99.99
2019-01-12T15:46:26.747Z,99.99
2019-01-12T15:47:06.998Z,99.99
2019-01-12T15:47:48.242Z,99.99
2019-01-12T15:48:28.643Z,99.99
2019-01-12T15:49:09.193Z,99.99
2019-01-12T15:49:49.840Z,99.99
2019-01-12T15:50:30.336Z,99.99
2019-01-12T15:51:10.727Z,99.99
2019-01-12T15:51:51.116Z,99.99
2019-01-12T15:52:31.510Z,99.99
2019-01-12T15:53:12.780Z,99.99
2019-01-12T15:53:53.115Z,99.99
2019-01-12T15:54:33.481Z,99.99
2019-01-12T15:55:13.947Z,99.99
2019-01-12T15:55:55.363Z,99.99
2019-01-12T15:56:35.797Z,99.99
2019-01-12T15:57:16.235Z,99.99
2019-01-12T15:57:56.617Z,99.99
2019-01-12T15:58:36.943Z,99.99
2019-01-12T15:59:17.397Z,99.99
2019-01-12T15:59:57.761Z,99.99
2019-01-12T16:00:38.223Z,99.99
2019-01-12T16:01:18.682Z,99.99
2019-01-12T16:01:59.154Z,99.99
2019-01-12T16:02:40.078Z,99.99
2019-01-12T16:03:20.157Z,99.99
2019-01-12T16:04:00.546Z,99.99
2019-01-12T16:04:40.988Z,99.99
2019-01-12T16:05:21.760Z,99.99
2019-01-12T16:06:02.294Z,99.99
2019-01-12T16:06:42.661Z,99.99
2019-01-12T16:07:23.018Z,99.99
2019-01-12T16:08:03.915Z,99.99
2019-01-12T16:08:43.822Z,99.99
2019-01-12T16:09:24.310Z,99.99
2019-01-12T16:10:04.855Z,99.99
2019-01-12T16:10:45.077Z,99.99
2019-01-12T16:11:25.478Z,99.99
2019-01-12T16:12:06.966Z,99.99
2019-01-12T16:12:47.166Z,99.99
2019-01-12T16:13:27.694Z,99.99
2019-01-12T16:14:09.025Z,99.99
2019-01-12T16:14:49.884Z,99.99
2019-01-12T16:15:30.272Z,99.99
2019-01-12T16:16:11.506Z,99.99
2019-01-12T16:16:51.804Z,99.99
2019-01-12T16:17:32.558Z,99.99
2019-01-12T16:18:30.484Z,99.99
2019-01-12T16:19:10.789Z,99.99
2019-01-12T16:19:51.158Z,99.99
2019-01-12T16:20:31.725Z,99.99
2019-01-12T16:21:12.083Z,99.99
2019-01-12T16:21:53.211Z,99.99
2019-01-12T16:22:34.303Z,99.99
2019-01-12T16:23:14.716Z,99.99
2019-01-12T16:23:55.146Z,99.99
2019-01-12T16:24:35.918Z,99.99
2019-01-12T16:25:16.138Z,99.99
2019-01-12T16:25:56.452Z,99.99
2019-01-12T16:26:36.807Z,99.99
2019-01-12T16:27:17.210Z,99.99
2019-01-12T16:27:57.763Z,99.99
2019-01-12T16:28:38.200Z,99.99
2019-01-12T16:29:20.337Z,99.99
2019-01-12T16:30:00.355Z,99.99
2019-01-12T16:30:40.687Z,99.99
2019-01-12T16:31:21.460Z,99.99
2019-01-12T17:09:31.666Z,99.99
2019-01-12T17:10:29.496Z,99.99
2019-01-12T17:11:10.855Z,99.99
2019-01-12T17:11:52.884Z,99.99
2019-01-12T17:12:33.963Z,99.99
2019-01-12T17:13:16.140Z,99.99
2019-01-12T17:13:58.304Z,99.99
2019-01-12T17:14:39.063Z,99.99
2019-01-12T17:15:19.340Z,99.99
2019-01-12T17:15:59.741Z,99.99
2019-01-12T17:16:40.142Z,99.99
2019-01-12T17:17:22.467Z,99.99
2019-01-12T17:18:05.897Z,99.99
2019-01-12T17:18:46.249Z,99.99
2019-01-12T17:19:26.645Z,99.99
2019-01-12T17:20:07.070Z,99.99
2019-01-12T17:20:48.606Z,99.99
2019-01-12T17:21:28.882Z,99.99
2019-01-12T17:22:15.897Z,99.99
2019-01-12T17:22:56.437Z,99.99
2019-01-12T17:23:36.870Z,99.99
2019-01-12T17:24:19.819Z,99.99
2019-01-12T17:25:00.293Z,99.99
2019-01-12T17:25:40.693Z,99.99
2019-01-12T17:26:23.234Z,99.99
2019-01-12T17:27:05.386Z,99.99
2019-01-12T17:27:45.813Z,99.99
2019-01-12T17:28:28.068Z,99.99
2019-01-12T17:29:17.638Z,99.99
2019-01-12T17:29:55.328Z,99.99
2019-01-12T17:30:37.576Z,99.99
2019-01-12T17:31:17.977Z,99.99
2019-01-12T17:31:58.440Z,99.99
2019-01-12T17:32:38.856Z,99.99
2019-01-12T17:33:19.293Z,99.99
2019-01-12T17:33:59.752Z,99.99
2019-01-12T17:34:41.345Z,99.99
2019-01-12T17:35:21.746Z,99.99
2019-01-12T17:36:02.122Z,99.99
2019-01-12T17:36:42.495Z,99.99
2019-01-12T17:37:22.909Z,99.99
2019-01-12T17:38:03.280Z,99.99
2019-01-12T17:38:43.844Z,99.99
2019-01-12T17:39:25.869Z,99.99
2019-01-12T17:40:06.244Z,99.99
2019-01-12T17:40:46.937Z,99.99
2019-01-12T17:41:27.467Z,99.99
2019-01-12T17:42:09.429Z,99.99
2019-01-12T17:42:49.799Z,99.99
2019-01-12T17:43:30.165Z,99.99
2019-01-12T17:44:10.851Z,99.99